Time;durP1;ratioP1;P1;durP2;ratioP2;P2;SDS_P1;SDS_P2;PMS_P1;PMS_P2;Temp;Humidity;BMP_temperature;BMP_pressure;BME280_temperature;BME280_humidity;BME280_pressure;Samples;Min_cycle;Max_cycle;Signal;HPM_P1;HPM_P2
2022/05/02 00:02:24;;;;;;;21.88;12.15;;;14.50;99.90;;;;;;4973024;28;20045;-83
2022/05/02 00:04:50;;;;;;;20.63;11.63;;;14.50;99.90;;;;;;4973224;28;20027;-83
2022/05/02 00:07:16;;;;;;;18.02;11.93;;;14.60;99.90;;;;;;4973208;28;20101;-83
2022/05/02 00:09:42;;;;;;;19.33;12.43;;;14.50;99.90;;;;;;4973141;28;20111;-83
2022/05/02 00:12:08;;;;;;;17.63;11.77;;;14.50;99.90;;;;;;4972717;28;20027;-83
2022/05/02 00:14:34;;;;;;;19.13;11.73;;;14.50;99.90;;;;;;4973150;28;20050;-83
2022/05/02 00:17:00;;;;;;;17.38;11.60;;;14.50;99.90;;;;;;4968081;28;20031;-83
2022/05/02 00:19:26;;;;;;;18.13;10.68;;;14.50;99.90;;;;;;4953864;29;20023;-83
2022/05/02 00:21:51;;;;;;;18.85;12.20;;;14.50;99.90;;;;;;4952600;29;20027;-83
2022/05/02 00:24:17;;;;;;;18.65;12.10;;;14.50;99.90;;;;;;4952122;28;20035;-82
2022/05/02 00:26:43;;;;;;;19.50;10.15;;;14.50;99.90;;;;;;4953612;29;20050;-83
2022/05/02 00:29:09;;;;;;;17.08;11.32;;;14.50;99.90;;;;;;4972729;28;20027;-83
2022/05/02 00:31:35;;;;;;;19.88;11.40;;;14.50;99.90;;;;;;4972605;28;20026;-83
2022/05/02 00:34:01;;;;;;;17.98;11.90;;;14.50;99.90;;;;;;4959860;28;20107;-83
2022/05/02 00:36:26;;;;;;;13.18;10.40;;;14.40;99.90;;;;;;4952325;28;20023;-83
2022/05/02 00:38:52;;;;;;;17.63;10.63;;;14.40;99.90;;;;;;4953585;28;20032;-84
2022/05/02 00:41:20;;;;;;;17.80;11.60;;;14.40;99.90;;;;;;4953336;28;20020;-83
2022/05/02 00:43:46;;;;;;;17.75;11.18;;;14.40;99.90;;;;;;4953742;28;20097;-83
2022/05/02 00:46:19;;;;;;;17.30;10.68;;;14.40;99.90;;;;;;4954591;28;20023;-83
2022/05/02 00:48:46;;;;;;;15.60;10.80;;;14.30;99.90;;;;;;4968385;28;20057;-83
2022/05/02 00:51:13;;;;;;;20.80;11.43;;;14.30;99.90;;;;;;4976459;28;20027;-82
2022/05/02 00:53:39;;;;;;;16.90;11.10;;;14.40;99.90;;;;;;4976847;28;20043;-82
2022/05/02 00:56:09;;;;;;;21.38;11.70;;;14.40;99.90;;;;;;4974851;28;20027;-82
2022/05/02 00:58:35;;;;;;;18.73;11.15;;;14.30;99.90;;;;;;4976151;28;20546;-82
2022/05/02 01:01:03;;;;;;;22.45;11.55;;;14.30;99.90;;;;;;4976200;28;20356;-82
2022/05/02 01:03:28;;;;;;;16.25;11.43;;;14.30;99.90;;;;;;4971468;28;20062;-82
2022/05/02 01:08:39;;;;;;;18.17;10.90;;;14.30;99.90;;;;;;4976081;28;20402;-82
2022/05/02 01:11:05;;;;;;;18.55;11.98;;;14.30;99.90;;;;;;4975934;28;20042;-82
2022/05/02 01:13:37;;;;;;;17.08;11.20;;;14.20;99.90;;;;;;4974315;28;20143;-82
2022/05/02 01:16:18;;;;;;;18.45;10.82;;;14.20;99.90;;;;;;4966413;28;20034;-83
2022/05/02 01:18:47;;;;;;;17.25;10.95;;;14.20;99.90;;;;;;4955359;29;20119;-83
2022/05/02 01:21:15;;;;;;;15.68;11.43;;;14.20;99.90;;;;;;4956435;28;20039;-82
2022/05/02 01:23:43;;;;;;;16.13;10.88;;;14.20;99.90;;;;;;4956515;28;20031;-82
2022/05/02 01:26:09;;;;;;;14.15;10.50;;;14.20;99.90;;;;;;4956408;28;20034;-83
2022/05/02 01:29:01;;;;;;;15.48;10.38;;;14.20;99.90;;;;;;4955132;28;20023;-82
2022/05/02 01:31:27;;;;;;;;;;;14.20;99.90;;;;;;4970191;28;20043;-83
2022/05/02 01:33:53;;;;;;;14.55;9.85;;;14.10;99.90;;;;;;4974382;28;19932;-83
2022/05/02 01:36:20;;;;;;;15.10;9.85;;;14.10;99.90;;;;;;4973585;28;20027;-83
2022/05/02 01:38:46;;;;;;;18.02;10.63;;;14.10;99.90;;;;;;4974447;28;20042;-83
2022/05/02 01:41:12;;;;;;;16.65;9.65;;;14.10;99.90;;;;;;4975186;28;20023;-83
2022/05/02 01:43:39;;;;;;;20.25;10.30;;;14.00;99.90;;;;;;4968345;28;20054;-83
2022/05/02 01:46:07;;;;;;;18.88;10.85;;;14.00;99.90;;;;;;4956013;28;20102;-83
2022/05/02 01:48:33;;;;;;;19.05;10.20;;;14.00;99.90;;;;;;4954150;28;20102;-83
2022/05/02 01:50:58;;;;;;;18.60;10.45;;;14.00;99.90;;;;;;4956193;28;20027;-83
2022/05/02 01:53:25;;;;;;;20.25;10.98;;;14.00;99.90;;;;;;4968586;28;20034;-83
2022/05/02 01:55:51;;;;;;;14.13;10.43;;;14.00;99.90;;;;;;4975305;28;20098;-83
2022/05/02 01:58:17;;;;;;;17.10;9.98;;;13.90;99.90;;;;;;4972301;28;20042;-83
2022/05/02 02:00:43;;;;;;;25.08;11.57;;;14.00;99.90;;;;;;4973966;28;20030;-83
2022/05/02 02:03:08;;;;;;;17.05;10.02;;;13.90;99.90;;;;;;4973762;28;20026;-83
2022/05/02 02:05:49;;;;;;;19.08;10.75;;;13.90;99.90;;;;;;4975007;28;20022;-83
2022/05/02 02:08:20;;;;;;;18.88;10.57;;;13.90;99.90;;;;;;4975029;28;20035;-83
2022/05/02 02:10:46;;;;;;;16.42;10.60;;;13.80;99.90;;;;;;4973038;28;20399;-83
2022/05/02 02:13:13;;;;;;;14.85;10.38;;;13.90;99.90;;;;;;4974888;28;20422;-83
2022/05/02 02:15:39;;;;;;;24.25;12.23;;;13.90;99.90;;;;;;4974886;28;20078;-83
2022/05/02 02:18:05;;;;;;;19.48;11.20;;;13.80;99.90;;;;;;4974023;28;20121;-83
2022/05/02 02:20:33;;;;;;;17.92;10.95;;;13.80;99.90;;;;;;4975035;28;20011;-83
2022/05/02 02:22:59;;;;;;;19.95;11.57;;;13.70;99.90;;;;;;4974823;28;20054;-83
2022/05/02 02:25:25;;;;;;;17.33;10.30;;;13.80;99.90;;;;;;4974477;28;20109;-82
2022/05/02 02:27:52;;;;;;;16.38;10.90;;;13.80;99.90;;;;;;4974648;28;20041;-83
2022/05/02 02:30:19;;;;;;;16.08;11.27;;;13.80;99.90;;;;;;4973273;28;20402;-83
2022/05/02 02:32:45;;;;;;;19.90;12.20;;;13.80;99.90;;;;;;4974723;28;20033;-83
2022/05/02 02:35:11;;;;;;;21.60;12.25;;;13.70;99.90;;;;;;4974499;28;20034;-83
2022/05/02 02:37:37;;;;;;;19.50;12.07;;;13.70;99.90;;;;;;4974905;28;20082;-83
2022/05/02 02:40:03;;;;;;;20.85;11.68;;;13.70;99.90;;;;;;4972030;28;20058;-83
2022/05/02 02:42:29;;;;;;;16.73;11.85;;;13.70;99.90;;;;;;4968044;28;20023;-83
2022/05/02 02:44:54;;;;;;;18.00;12.02;;;13.60;99.90;;;;;;4970865;28;20131;-83
2022/05/02 02:47:20;;;;;;;20.23;12.80;;;13.60;99.90;;;;;;4972392;28;20057;-83
2022/05/02 02:49:45;;;;;;;17.88;12.52;;;13.60;99.90;;;;;;4974622;28;20030;-83
2022/05/02 02:52:11;;;;;;;28.27;13.85;;;13.50;99.90;;;;;;4973969;28;20027;-83
2022/05/02 02:54:37;;;;;;;22.52;12.18;;;13.60;99.90;;;;;;4973784;28;20105;-83
2022/05/02 02:57:03;;;;;;;18.35;13.13;;;13.40;99.90;;;;;;4973509;28;20085;-83
2022/05/02 02:59:29;;;;;;;21.70;12.75;;;13.50;99.90;;;;;;4973757;28;20022;-83
2022/05/02 03:01:56;;;;;;;24.15;13.73;;;13.50;99.90;;;;;;4974219;28;20034;-82
2022/05/02 03:07:08;;;;;;;24.65;14.40;;;13.40;99.90;;;;;;4973681;28;20045;-83
2022/05/02 03:09:34;;;;;;;24.50;14.00;;;13.40;99.90;;;;;;4971975;28;20042;-83
2022/05/02 03:12:00;;;;;;;24.25;14.32;;;13.40;99.90;;;;;;4973925;28;20026;-83
2022/05/02 03:14:25;;;;;;;25.13;14.50;;;13.40;99.90;;;;;;4973671;28;20031;-83
2022/05/02 03:16:51;;;;;;;24.58;14.32;;;13.30;99.90;;;;;;4973804;28;20114;-83
2022/05/02 03:19:17;;;;;;;24.10;14.93;;;13.30;99.90;;;;;;4973940;28;20023;-83
2022/05/02 03:21:42;;;;;;;26.00;15.38;;;13.30;99.90;;;;;;4964529;28;20031;-83
2022/05/02 03:24:08;;;;;;;30.40;14.63;;;13.30;99.90;;;;;;4954040;28;20430;-83
2022/05/02 03:26:34;;;;;;;22.80;15.20;;;13.20;99.90;;;;;;4954181;28;20395;-83
2022/05/02 03:28:59;;;;;;;25.10;16.08;;;13.30;99.90;;;;;;4953515;28;20078;-83
2022/05/02 03:31:25;;;;;;;31.42;15.88;;;13.10;99.90;;;;;;4954151;28;20035;-82
2022/05/02 03:33:54;;;;;;;26.55;16.42;;;13.10;99.90;;;;;;4971115;28;20400;-83
2022/05/02 03:36:19;;;;;;;26.70;15.73;;;13.20;99.90;;;;;;4973207;28;20146;-83
2022/05/02 03:38:46;;;;;;;26.58;15.32;;;13.20;99.90;;;;;;4972898;28;20454;-83
2022/05/02 03:41:12;;;;;;;25.42;16.13;;;13.20;99.90;;;;;;4972251;28;20030;-83
2022/05/02 03:43:38;;;;;;;28.90;16.48;;;13.20;99.90;;;;;;4954204;29;20034;-83
2022/05/02 03:46:03;;;;;;;28.33;15.88;;;13.20;99.90;;;;;;4969904;28;20487;-83
2022/05/02 03:48:29;;;;;;;28.73;15.98;;;13.20;99.90;;;;;;4971557;28;20052;-83
2022/05/02 03:50:55;;;;;;;24.50;16.80;;;13.10;99.90;;;;;;4973370;28;20434;-83
2022/05/02 03:53:21;;;;;;;30.02;17.48;;;13.10;99.90;;;;;;4973030;28;20077;-83
2022/05/02 03:55:47;;;;;;;28.00;16.65;;;13.10;99.90;;;;;;4971754;28;20030;-83
2022/05/02 03:58:13;;;;;;;30.42;17.95;;;13.00;99.90;;;;;;4973176;28;20037;-83
2022/05/02 04:00:39;;;;;;;31.10;17.83;;;13.00;99.90;;;;;;4972199;28;20105;-83
2022/05/02 04:03:05;;;;;;;34.75;18.73;;;13.00;99.90;;;;;;4971991;28;20023;-83
2022/05/02 04:05:31;;;;;;;26.70;17.08;;;13.00;99.90;;;;;;4972937;28;20364;-83
2022/05/02 04:07:56;;;;;;;30.08;18.05;;;13.00;99.90;;;;;;4973050;28;20411;-83
2022/05/02 04:10:22;;;;;;;29.50;17.40;;;13.00;99.90;;;;;;4971537;28;20069;-83
2022/05/02 04:12:48;;;;;;;27.55;17.02;;;13.00;99.90;;;;;;4972987;28;20027;-83
2022/05/02 04:15:14;;;;;;;30.40;17.13;;;12.90;99.90;;;;;;4973243;28;20034;-83
2022/05/02 04:17:40;;;;;;;32.55;18.92;;;13.00;99.90;;;;;;4973220;28;20019;-83
2022/05/02 04:20:07;;;;;;;32.97;18.42;;;13.00;99.90;;;;;;4973082;28;20471;-83
2022/05/02 04:22:35;;;;;;;26.10;18.05;;;13.00;99.90;;;;;;4975929;28;20391;-82
2022/05/02 04:25:01;;;;;;;27.42;18.13;;;13.00;99.90;;;;;;4976667;28;20031;-82
2022/05/02 04:27:27;;;;;;;26.45;17.70;;;13.00;99.90;;;;;;4976794;28;20106;-82
2022/05/02 04:29:53;;;;;;;31.73;17.35;;;13.00;99.90;;;;;;4977002;28;20166;-83
2022/05/02 04:32:18;;;;;;;29.08;18.63;;;12.90;99.90;;;;;;4976708;28;20498;-83
2022/05/02 04:34:44;;;;;;;32.40;19.05;;;12.80;99.90;;;;;;4975525;28;20030;-82
2022/05/02 04:37:10;;;;;;;30.15;18.33;;;12.90;99.90;;;;;;4976267;28;20022;-83
2022/05/02 04:39:36;;;;;;;29.30;17.60;;;12.80;99.90;;;;;;4976510;28;20119;-83
2022/05/02 04:42:02;;;;;;;27.80;16.50;;;12.80;99.90;;;;;;4976748;28;20114;-82
2022/05/02 04:44:27;;;;;;;29.85;18.08;;;12.80;99.90;;;;;;4976493;28;20116;-82
2022/05/02 04:46:53;;;;;;;31.73;17.50;;;12.70;99.90;;;;;;4974424;28;20026;-82
2022/05/02 04:49:19;;;;;;;31.08;18.65;;;12.70;99.90;;;;;;4957237;28;20033;-82
2022/05/02 04:51:44;;;;;;;27.23;17.77;;;12.70;99.90;;;;;;4961441;28;20038;-82
2022/05/02 04:54:10;;;;;;;26.70;18.13;;;12.70;99.90;;;;;;4976277;28;20045;-82
2022/05/02 04:56:36;;;;;;;30.63;17.88;;;12.70;99.90;;;;;;4974941;28;20401;-82
2022/05/02 04:59:02;;;;;;;31.02;18.40;;;12.70;99.90;;;;;;4976312;28;20030;-82
2022/05/02 05:01:27;;;;;;;30.92;17.58;;;12.80;99.90;;;;;;4976596;28;20031;-82
2022/05/02 05:03:53;;;;;;;28.30;17.33;;;12.80;99.90;;;;;;4991123;28;20074;-82
2022/05/02 05:06:19;;;;;;;33.15;18.58;;;12.70;99.90;;;;;;4974404;28;20027;-82
2022/05/02 05:08:44;;;;;;;37.17;18.55;;;12.60;99.90;;;;;;4976011;28;20065;-82
2022/05/02 05:11:45;;;;;;;25.77;17.63;;;12.60;99.90;;;;;;4975905;28;20034;-82
2022/05/02 05:17:17;;;;;;;32.75;18.50;;;12.60;99.90;;;;;;4976111;28;20486;-82
2022/05/02 05:19:48;;;;;;;23.60;16.30;;;12.60;99.90;;;;;;4976008;28;20101;-82
2022/05/02 05:22:36;;;;;;;35.40;17.77;;;12.60;99.90;;;;;;4975464;28;20019;-82
2022/05/02 05:25:26;;;;;;;28.15;17.25;;;12.60;99.90;;;;;;4976230;28;20054;-82
2022/05/02 05:28:04;;;;;;;33.67;18.05;;;12.60;99.90;;;;;;4975391;28;20030;-82
2022/05/02 05:30:38;;;;;;;27.92;18.50;;;12.70;99.90;;;;;;4975769;28;20038;-82
2022/05/02 05:33:09;;;;;;;29.15;18.48;;;12.60;99.90;;;;;;4974302;28;20033;-82
2022/05/02 05:35:52;;;;;;;30.70;19.13;;;12.70;99.90;;;;;;4974547;28;20042;-83
2022/05/02 05:38:27;;;;;;;37.00;19.08;;;12.70;99.90;;;;;;4975592;28;20085;-83
2022/05/02 05:41:10;;;;;;;31.88;19.95;;;12.70;99.90;;;;;;4975558;28;20030;-83
2022/05/02 05:43:42;;;;;;;29.13;18.73;;;12.70;99.90;;;;;;4975844;28;20027;-83
2022/05/02 05:46:40;;;;;;;30.42;18.60;;;12.70;99.90;;;;;;4975540;28;20026;-83
2022/05/02 05:49:09;;;;;;;29.98;18.67;;;12.70;99.90;;;;;;4963666;28;20043;-83
2022/05/02 05:51:50;;;;;;;27.85;18.65;;;12.70;99.90;;;;;;4975097;28;20114;-83
2022/05/02 05:54:16;;;;;;;31.77;17.98;;;12.80;99.90;;;;;;4974936;28;20033;-83
2022/05/02 05:57:19;;;;;;;31.13;17.45;;;12.80;99.90;;;;;;4975349;28;20031;-83
2022/05/02 06:00:18;;;;;;;29.13;18.50;;;12.80;99.90;;;;;;4974171;28;20549;-83
2022/05/02 06:02:48;;;;;;;23.45;16.70;;;12.80;99.90;;;;;;4945186;28;20695;-83
2022/05/02 06:05:14;;;;;;;25.88;17.45;;;12.80;99.90;;;;;;4940466;29;20583;-83
2022/05/02 06:07:40;;;;;;;32.83;18.13;;;13.00;99.90;;;;;;4937383;29;20023;-83
2022/05/02 06:10:09;;;;;;;31.92;16.92;;;13.00;99.90;;;;;;4937733;29;20031;-83
2022/05/02 06:12:37;;;;;;;27.77;17.20;;;13.10;99.90;;;;;;4937865;29;20090;-83
2022/05/02 06:20:45;;;;;;;29.35;16.95;;;13.20;99.90;;;;;;4953276;29;20508;-83
2022/05/02 06:23:13;;;;;;;26.25;16.73;;;13.10;99.90;;;;;;4953520;29;20106;-83
2022/05/02 06:25:39;;;;;;;30.65;18.38;;;13.00;99.90;;;;;;4953626;29;20044;-83
2022/05/02 06:28:07;;;;;;;33.38;18.15;;;13.10;99.90;;;;;;4953249;29;20491;-83
2022/05/02 06:30:36;;;;;;;28.15;17.65;;;13.00;99.90;;;;;;4953238;29;20035;-83
2022/05/02 06:33:08;;;;;;;26.55;17.52;;;13.10;99.90;;;;;;4952691;29;20062;-83
2022/05/02 06:35:52;;;;;;;28.08;17.00;;;13.20;99.90;;;;;;4940220;29;20042;-83
2022/05/02 06:38:31;;;;;;;30.73;17.10;;;13.40;99.90;;;;;;4950481;28;20041;-83
2022/05/02 06:41:14;;;;;;;24.13;16.67;;;13.40;99.90;;;;;;4962617;28;20023;-83
2022/05/02 06:43:59;;;;;;;;;;;13.40;99.90;;;;;;4970423;28;20113;-83
2022/05/02 06:46:43;;;;;;;26.38;16.25;;;13.50;99.90;;;;;;4957312;28;20115;-83
2022/05/02 06:49:12;;;;;;;27.27;17.75;;;13.50;99.90;;;;;;4962293;28;20035;-83
2022/05/02 06:51:40;;;;;;;30.38;17.08;;;13.40;99.90;;;;;;4966145;28;20023;-82
2022/05/02 06:54:29;;;;;;;29.60;16.83;;;13.50;99.90;;;;;;4959421;28;20042;-83
2022/05/02 06:57:01;;;;;;;27.05;15.68;;;13.40;99.90;;;;;;4969259;28;20537;-83
2022/05/02 06:59:54;;;;;;;28.55;16.73;;;13.50;99.90;;;;;;4964582;28;20019;-83
2022/05/02 07:02:57;;;;;;;30.65;16.55;;;13.70;99.90;;;;;;4967895;28;20062;-83
2022/05/02 07:05:22;;;;;;;;;;;13.70;99.90;;;;;;4959314;28;20379;-83
2022/05/02 07:08:04;;;;;;;26.55;16.45;;;13.80;99.90;;;;;;4971584;28;19992;-78
2022/05/02 07:10:40;;;;;;;26.83;16.13;;;13.80;99.90;;;;;;4966110;28;20494;-81
2022/05/02 07:13:15;;;;;;;21.20;14.32;;;13.80;99.90;;;;;;4971651;28;20035;-82
2022/05/02 07:15:48;;;;;;;23.52;14.80;;;13.90;99.90;;;;;;4968864;28;20455;-81
2022/05/02 07:18:59;;;;;;;27.30;16.23;;;14.00;99.90;;;;;;4953444;28;20415;-81
2022/05/02 07:21:37;;;;;;;40.80;16.40;;;14.00;99.90;;;;;;4955663;28;20051;-81
2022/05/02 07:24:27;;;;;;;25.10;15.35;;;14.10;99.90;;;;;;4952934;28;20442;-82
2022/05/02 07:27:34;;;;;;;24.92;14.70;;;14.20;99.90;;;;;;4968683;28;20046;-81
2022/05/02 07:30:01;;;;;;;20.08;14.55;;;14.20;99.90;;;;;;4956508;28;20046;-81
2022/05/02 07:32:27;;;;;;;23.20;14.75;;;14.40;99.90;;;;;;4970263;28;20042;-82
2022/05/02 07:34:55;;;;;;;25.60;15.23;;;14.40;99.90;;;;;;4969647;28;20143;-82
2022/05/02 07:37:22;;;;;;;35.50;14.60;;;14.40;99.90;;;;;;4971004;28;20026;-82
2022/05/02 07:39:51;;;;;;;22.30;14.40;;;14.50;99.90;;;;;;4970136;28;20097;-87
2022/05/02 07:42:18;;;;;;;23.70;14.52;;;14.50;99.90;;;;;;4968357;28;20085;-78
2022/05/02 07:44:47;;;;;;;29.95;14.73;;;14.60;99.90;;;;;;4953137;28;20038;-83
2022/05/02 07:47:15;;;;;;;26.60;15.25;;;14.60;99.90;;;;;;4958354;28;20515;-82
2022/05/02 07:49:50;;;;;;;23.17;14.57;;;14.50;99.90;;;;;;4959112;28;20158;-80
2022/05/02 07:52:21;;;;;;;28.05;14.25;;;14.60;99.90;;;;;;4954086;28;20062;-80
2022/05/02 07:54:47;;;;;;;20.60;13.80;;;14.50;99.90;;;;;;4951020;28;20522;-79
2022/05/02 07:57:15;;;;;;;26.20;14.15;;;14.50;99.90;;;;;;4949163;28;20031;-80
2022/05/02 07:59:42;;;;;;;24.48;14.38;;;14.60;99.90;;;;;;4947999;29;20102;-79
2022/05/02 08:02:08;;;;;;;20.80;14.23;;;14.60;99.90;;;;;;4934454;28;20027;-79
2022/05/02 08:04:37;;;;;;;24.85;13.15;;;14.60;99.90;;;;;;4939446;29;20085;-80
2022/05/02 08:07:12;;;;;;;22.05;13.85;;;14.70;99.90;;;;;;4940274;28;20026;-83
2022/05/02 08:10:03;;;;;;;24.98;13.93;;;14.70;99.90;;;;;;4934263;29;20035;-75
2022/05/02 08:12:39;;;;;;;29.73;13.90;;;14.50;99.90;;;;;;4946490;29;20046;-79
2022/05/02 08:15:08;;;;;;;24.55;13.32;;;14.30;99.90;;;;;;4938909;29;20035;-82
2022/05/02 08:17:53;;;;;;;24.45;13.75;;;14.40;99.90;;;;;;4946761;29;20043;-79
2022/05/02 08:20:56;;;;;;;23.65;13.95;;;14.70;99.90;;;;;;4939885;29;20059;-79
2022/05/02 08:27:21;;;;;;;19.38;12.88;;;14.90;99.90;;;;;;4939752;29;20450;-79
2022/05/02 08:30:09;;;;;;;20.65;12.93;;;14.90;99.90;;;;;;4938566;29;20024;-79
2022/05/02 08:32:50;;;;;;;23.40;12.48;;;15.10;99.90;;;;;;4946502;29;20019;-78
2022/05/02 08:35:41;;;;;;;22.60;12.55;;;15.40;99.90;;;;;;4938219;29;20067;-79
2022/05/02 08:38:22;;;;;;;20.05;11.65;;;15.50;99.90;;;;;;4941430;29;20243;-79
2022/05/02 08:41:19;;;;;;;19.75;11.75;;;15.70;99.90;;;;;;4945160;28;20055;-80
2022/05/02 08:44:03;;;;;;;24.27;13.50;;;16.00;99.90;;;;;;4934369;29;20083;-79
2022/05/02 08:46:56;;;;;;;27.17;13.50;;;15.80;99.90;;;;;;4943590;28;20027;-79
2022/05/02 08:49:40;;;;;;;19.00;12.70;;;15.80;99.90;;;;;;4942626;29;20063;-79
2022/05/02 08:52:24;;;;;;;20.63;12.65;;;16.10;99.90;;;;;;4949446;29;20459;-79
2022/05/02 08:55:16;;;;;;;28.70;13.13;;;16.20;99.90;;;;;;4944048;29;20052;-79
2022/05/02 08:58:01;;;;;;;26.48;12.25;;;16.40;99.90;;;;;;4947145;29;20047;-79
2022/05/02 09:00:33;;;;;;;17.60;11.82;;;16.10;99.90;;;;;;4945398;29;20492;-78
2022/05/02 09:03:37;;;;;;;22.75;12.27;;;16.00;99.90;;;;;;4940688;29;20082;-79
2022/05/02 09:06:31;;;;;;;18.92;12.20;;;16.80;99.90;;;;;;4948095;29;20020;-79
2022/05/02 09:09:37;;;;;;;16.98;11.10;;;17.30;99.90;;;;;;4943101;29;20024;-78
2022/05/02 09:12:44;;;;;;;16.77;11.52;;;17.20;99.90;;;;;;4944052;28;20026;-80
2022/05/02 09:15:43;;;;;;;20.15;11.35;;;17.20;99.90;;;;;;4951880;29;20042;-85
2022/05/02 09:18:42;;;;;;;18.75;11.32;;;17.10;99.90;;;;;;4937587;29;20034;-85
2022/05/02 09:21:26;;;;;;;20.35;11.65;;;17.90;99.90;;;;;;4953951;29;20032;-78
2022/05/02 09:24:16;;;;;;;22.05;10.82;;;18.10;99.90;;;;;;4938080;29;20027;-81
2022/05/02 09:26:55;;;;;;;16.25;10.55;;;18.00;99.90;;;;;;4952907;29;20047;-82
2022/05/02 09:29:23;;;;;;;18.77;11.40;;;17.60;99.90;;;;;;4954142;28;20027;-80
